Lencois Paulista, Brazil
Current Conditions -  °F | °C
As of 10:00 PM on Friday 19 Dec 2014 (Local Time) from SBBU Reporting Station
Clear Clear  
Wind Chill: 82°   Ceiling: Unl
Heat Index: 89°   Visibility: 6mi
Dew Point: 75°   Wind: 0mph
Humidity: 79%   Direction: NA
Pressure: 29.8"   Gusts: NA
Location:  22.59°S, 48.8°W
Report Text: SBBU 200000Z 00000KT CAVOK 28/24 Q1009
Loading
Personal Weather Stations






























Interactive Weather Map New forecast layout! Learn more

10-Day Weather Forecast

Advertisements
Track Severe Weather on mobile